Time;durP1;ratioP1;P1;durP2;ratioP2;P2;SDS_P1;SDS_P2;PMS_P1;PMS_P2;Temp;Humidity;BMP_temperature;BMP_pressure;BME280_temperature;BME280_humidity;BME280_pressure;Samples;Min_cycle;Max_cycle;Signal;HPM_P1;HPM_P2
2023/06/06 00:00:06;;;;;;;4.40;2.00;;;;;;;19.99;42.14;99228.77;223770;185;148588;-65
2023/06/06 00:05:34;;;;;;;3.50;2.00;;;;;;;19.93;42.21;99226.33;223773;181;142084;-64
2023/06/06 00:10:37;;;;;;;5.10;2.10;;;;;;;19.87;42.28;99219.67;223662;214;137270;-66
2023/06/06 00:15:41;;;;;;;6.40;2.20;;;;;;;19.81;42.29;99212.20;223738;181;147595;-64
2023/06/06 00:20:44;;;;;;;3.80;2.00;;;;;;;19.76;42.43;99212.73;223648;181;138366;-64
2023/06/06 00:25:49;;;;;;;6.30;1.80;;;;;;;19.70;42.54;99208.77;223545;181;137358;-62
2023/06/06 00:30:52;;;;;;;5.50;1.90;;;;;;;19.67;42.73;99206.09;223543;181;147734;-64
2023/06/06 00:35:57;;;;;;;3.50;2.00;;;;;;;19.60;42.98;99206.61;223596;181;138081;-61
2023/06/06 00:41:01;;;;;;;4.50;2.10;;;;;;;19.55;43.00;99204.45;223814;181;137594;-63
2023/06/06 00:46:04;;;;;;;3.70;2.00;;;;;;;19.50;43.13;99200.98;223685;214;148344;-62
2023/06/06 00:51:09;;;;;;;3.10;2.20;;;;;;;19.46;43.17;99198.25;223790;214;138358;-62
2023/06/06 00:56:13;;;;;;;5.20;2.00;;;;;;;19.41;42.92;99198.62;223595;181;137980;-63
2023/06/06 01:01:16;;;;;;;2.90;1.90;;;;;;;19.36;43.13;99199.60;223689;181;147005;-62
2023/06/06 01:06:22;;;;;;;9.60;2.10;;;;;;;19.29;43.31;99197.91;223655;181;139576;-61
2023/06/06 01:11:34;;;;;;;4.20;2.40;;;;;;;19.24;43.49;99195.92;223682;182;137265;-62
2023/06/06 01:16:40;;;;;;;3.50;2.20;;;;;;;19.21;43.57;99201.40;223779;203;147166;-62
2023/06/06 03:25:29;;;;;;;8.40;2.70;;;;;;;18.35;46.46;99196.27;222276;189;665620;-59
2023/06/06 03:30:32;;;;;;;5.40;2.40;;;;;;;18.31;46.57;99198.95;223513;182;136593;-62
2023/06/06 03:35:36;;;;;;;5.50;2.30;;;;;;;18.28;46.52;99202.92;223577;216;143427;-61
2023/06/06 03:40:40;;;;;;;8.10;2.60;;;;;;;18.26;46.49;99197.90;223441;216;138226;-62
2023/06/06 03:45:45;;;;;;;5.50;2.50;;;;;;;18.23;46.80;99197.40;223595;183;136566;-64
2023/06/06 03:50:53;;;;;;;5.70;2.60;;;;;;;18.22;46.82;99192.68;223548;182;143517;-62
2023/06/06 03:56:00;;;;;;;7.80;2.70;;;;;;;18.22;46.86;99193.36;223620;181;138153;-61
2023/06/06 04:01:03;;;;;;;6.30;2.40;;;;;;;18.23;46.86;99198.29;223777;181;136810;-63
2023/06/06 04:06:08;;;;;;;9.60;2.90;;;;;;;18.23;46.98;99197.64;223914;214;143522;-63
2023/06/06 04:11:13;;;;;;;8.60;2.30;;;;;;;18.23;47.20;99198.55;223733;181;138407;-64
2023/06/06 04:16:16;;;;;;;5.80;2.80;;;;;;;18.22;47.30;99194.81;223696;182;136963;-62
2023/06/06 04:21:20;;;;;;;8.80;2.60;;;;;;;18.24;47.12;99188.93;223726;181;145964;-63
2023/06/06 04:26:25;;;;;;;8.80;2.90;;;;;;;18.24;47.16;99183.83;223620;181;139153;-64
2023/06/06 04:31:31;;;;;;;8.30;2.60;;;;;;;18.27;47.31;99181.98;223786;181;137233;-68
2023/06/06 04:36:51;;;;;;;12.40;3.00;;;;;;;18.28;47.49;99180.09;223674;181;145223;-69
2023/06/06 04:41:57;;;;;;;25.60;3.50;;;;;;;18.28;47.48;99180.95;223648;215;139473;-66
2023/06/06 04:47:07;;;;;;;14.00;3.30;;;;;;;18.31;47.62;99182.84;223648;181;140131;-69
2023/06/06 04:52:14;;;;;;;15.40;3.20;;;;;;;18.35;47.58;99184.12;223599;181;145819;-74
2023/06/06 04:57:19;;;;;;;8.70;3.00;;;;;;;18.39;47.43;99183.36;223430;182;139158;-69
2023/06/06 05:02:28;;;;;;;11.80;2.80;;;;;;;18.47;47.60;99179.79;223560;180;137169;-66
2023/06/06 05:07:34;;;;;;;99.50;80.20;;;;;;;18.57;48.15;99183.70;223557;182;145634;-67
2023/06/06 05:12:37;;;;;;;10.60;5.50;;;;;;;18.65;47.13;99191.02;223607;181;138920;-64
2023/06/06 05:17:55;;;;;;;4.60;3.30;;;;;;;18.67;46.80;99189.20;223731;203;136951;-66
2023/06/06 05:22:59;;;;;;;151.10;116.20;;;;;;;18.69;46.90;99190.30;223742;181;145383;-69
2023/06/06 05:28:11;;;;;;;15.50;9.80;;;;;;;18.92;49.40;99189.98;223501;182;140044;-71
2023/06/06 05:33:14;;;;;;;10.20;6.30;;;;;;;19.45;48.82;99183.07;223648;182;139496;-69
2023/06/06 05:38:19;;;;;;;9.10;5.00;;;;;;;19.75;47.51;99179.71;223540;182;145304;-66
2023/06/06 05:43:22;;;;;;;9.10;6.10;;;;;;;19.92;46.18;99181.38;223647;182;139194;-71
2023/06/06 05:48:25;;;;;;;8.60;3.50;;;;;;;20.00;45.55;99179.20;223697;182;136621;-69
2023/06/06 05:53:29;;;;;;;10.10;5.70;;;;;;;19.95;45.70;99177.36;223694;214;145682;-65
2023/06/06 05:58:32;;;;;;;169.30;122.10;;;;;;;20.08;45.43;99171.02;223609;183;138506;-66
2023/06/06 06:03:36;;;;;;;18.90;7.70;;;;;;;20.17;44.95;99171.95;223616;181;137725;-73
2023/06/06 06:08:40;;;;;;;7.70;3.30;;;;;;;20.24;44.69;99168.61;223462;181;145374;-66
2023/06/06 07:13:51;;;;;;;137.60;78.30;;;;;;;21.14;45.44;99167.46;219714;192;665856;-67
2023/06/06 07:18:55;;;;;;;10.90;5.50;;;;;;;21.17;45.03;99165.92;223578;216;136363;-64
2023/06/06 07:23:58;;;;;;;7.50;3.70;;;;;;;21.17;44.36;99165.70;223494;183;281747;-66
2023/06/06 07:29:03;;;;;;;5.50;3.40;;;;;;;21.20;44.05;99165.88;223617;183;138511;-64
2023/06/06 07:34:06;;;;;;;7.30;3.50;;;;;;;21.25;44.00;99166.98;223360;184;137014;-64
2023/06/06 07:39:09;;;;;;;11.50;3.20;;;;;;;21.28;44.35;99167.94;223541;183;143504;-64
2023/06/06 07:44:15;;;;;;;9.60;3.40;;;;;;;21.28;44.24;99171.80;223479;182;140935;-66
2023/06/06 07:49:19;;;;;;;7.80;3.20;;;;;;;21.27;44.24;99167.95;223759;183;136624;-63
2023/06/06 07:54:22;;;;;;;13.00;3.70;;;;;;;21.26;43.95;99165.66;223686;182;143519;-64
2023/06/06 07:59:26;;;;;;;238.10;157.50;;;;;;;21.27;44.65;99166.45;223483;182;138236;-68
2023/06/06 08:04:29;;;;;;;17.60;9.30;;;;;;;21.29;45.50;99163.89;223602;182;138529;-70
2023/06/06 08:09:32;;;;;;;11.50;5.10;;;;;;;21.30;45.51;99159.15;223449;182;145768;-69
2023/06/06 08:14:36;;;;;;;11.20;7.80;;;;;;;21.29;45.36;99158.48;223423;182;138723;-66
2023/06/06 08:19:40;;;;;;;14.00;4.30;;;;;;;21.34;45.24;99156.05;223462;182;136599;-69
2023/06/06 09:14:07;;;;;;;23.80;17.60;;;;;;;22.47;44.03;99138.14;219756;192;667511;-76
2023/06/06 09:19:11;;;;;;;12.90;4.30;;;;;;;22.67;43.73;99138.98;223640;216;137933;-68
2023/06/06 09:24:18;;;;;;;7.40;3.30;;;;;;;22.80;43.04;99134.73;223517;183;143755;-71
2023/06/06 09:29:24;;;;;;;7.90;3.80;;;;;;;22.93;43.09;99132.17;223531;184;138360;-67
2023/06/06 09:34:28;;;;;;;10.50;3.40;;;;;;;22.97;42.95;99132.04;223598;183;137163;-69
2023/06/06 09:39:31;;;;;;;7.20;3.30;;;;;;;22.99;43.09;99138.31;223516;183;143198;-75
2023/06/06 09:44:34;;;;;;;33.40;23.10;;;;;;;23.04;43.13;99143.20;223496;185;138380;-73
2023/06/06 09:49:38;;;;;;;12.80;5.20;;;;;;;23.12;42.99;99141.13;223556;183;137383;-69
2023/06/06 09:54:43;;;;;;;7.10;3.50;;;;;;;23.19;42.21;99141.15;223659;216;143560;-70
2023/06/06 09:59:48;;;;;;;5.20;3.30;;;;;;;23.25;41.96;99140.09;223534;183;138223;-70
2023/06/06 10:04:52;;;;;;;34.70;23.40;;;;;;;23.30;41.75;99140.21;223504;183;136814;-72
2023/06/06 10:09:56;;;;;;;11.90;4.60;;;;;;;23.32;40.98;99142.71;223380;183;146184;-70
2023/06/06 10:15:00;;;;;;;13.40;4.40;;;;;;;23.26;40.41;99144.29;223414;183;138902;-70
2023/06/06 10:20:06;;;;;;;9.30;4.50;;;;;;;23.21;40.95;99145.09;223673;181;136645;-68
2023/06/06 10:25:12;;;;;;;20.40;4.00;;;;;;;23.19;41.09;99147.66;223670;192;145698;-72
2023/06/06 10:30:30;;;;;;;11.30;3.90;;;;;;;23.11;41.89;99140.59;223566;181;138394;-69
2023/06/06 10:35:36;;;;;;;13.60;3.70;;;;;;;22.97;42.41;99145.73;223503;214;137690;-69
2023/06/06 10:40:56;;;;;;;10.60;3.90;;;;;;;22.89;42.94;99153.17;223683;183;145187;-70
2023/06/06 10:46:03;;;;;;;8.60;3.60;;;;;;;22.80;43.28;99163.41;223527;181;139551;-69
2023/06/06 10:51:08;;;;;;;10.50;3.70;;;;;;;22.70;43.53;99168.52;223586;181;136594;-70
2023/06/06 10:56:31;;;;;;;10.70;3.80;;;;;;;22.57;44.08;99165.60;223659;181;145729;-71
2023/06/06 11:01:36;;;;;;;11.10;4.60;;;;;;;22.51;43.96;99160.42;223732;181;138354;-67
2023/06/06 11:06:45;;;;;;;12.80;5.20;;;;;;;22.43;44.62;99164.40;223691;203;137140;-67
2023/06/06 11:12:11;;;;;;;12.20;4.60;;;;;;;22.32;45.41;99169.17;223747;181;145757;-69
2023/06/06 11:17:14;;;;;;;13.80;5.10;;;;;;;22.21;46.45;99169.67;223535;185;138478;-68
2023/06/06 11:22:23;;;;;;;11.80;5.20;;;;;;;22.11;47.80;99171.00;223676;182;137614;-69
2023/06/06 11:27:26;;;;;;;11.80;4.90;;;;;;;22.00;48.11;99176.42;223517;181;145212;-68
2023/06/06 11:32:32;;;;;;;12.70;4.60;;;;;;;21.99;48.31;99177.14;223759;181;138154;-69
2023/06/06 11:37:36;;;;;;;17.00;5.10;;;;;;;22.04;48.38;99178.17;223735;181;136808;-67
2023/06/06 11:42:43;;;;;;;16.30;4.90;;;;;;;22.08;48.03;99175.45;223814;182;145277;-66
2023/06/06 11:47:46;;;;;;;13.30;5.50;;;;;;;22.10;47.92;99173.94;223839;181;138099;-68
2023/06/06 11:52:50;;;;;;;12.50;4.50;;;;;;;22.12;48.56;99176.21;223772;181;138887;-65
2023/06/06 11:57:54;;;;;;;16.10;5.40;;;;;;;22.13;48.63;99185.67;223657;182;145289;-68
2023/06/06 12:02:59;;;;;;;10.70;5.60;;;;;;;22.12;49.22;99185.30;223771;183;138413;-68
2023/06/06 12:08:06;;;;;;;9.80;5.50;;;;;;;22.13;49.73;99190.61;223708;181;137437;-69
2023/06/06 12:13:10;;;;;;;10.50;5.40;;;;;;;22.13;50.13;99190.42;223700;203;145464;-67
2023/06/06 12:18:14;;;;;;;8.90;4.90;;;;;;;22.06;49.95;99190.13;223691;181;138524;-69
2023/06/06 12:23:30;;;;;;;10.00;5.10;;;;;;;21.96;50.09;99187.75;223698;181;137539;-67
2023/06/06 12:28:34;;;;;;;9.80;5.10;;;;;;;21.87;50.52;99184.89;223523;203;145289;-69
2023/06/06 12:33:44;;;;;;;8.50;5.10;;;;;;;21.85;50.92;99182.78;223672;180;138360;-71
2023/06/06 12:39:01;;;;;;;11.30;5.20;;;;;;;21.86;51.44;99178.00;223663;181;139981;-70
2023/06/06 12:44:11;;;;;;;9.00;5.10;;;;;;;21.87;51.60;99178.41;223578;181;145692;-68
2023/06/06 12:49:14;;;;;;;7.00;4.90;;;;;;;21.88;51.50;99176.12;223743;183;139094;-72
2023/06/06 12:54:18;;;;;;;10.80;4.90;;;;;;;21.93;51.33;99171.99;223715;181;137482;-73
2023/06/06 12:59:26;;;;;;;9.10;4.50;;;;;;;21.97;51.31;99161.23;223581;181;145226;-68
2023/06/06 13:04:30;;;;;;;13.10;6.30;;;;;;;22.00;51.90;99152.29;223600;214;138875;-68
2023/06/06 13:09:33;;;;;;;10.20;5.60;;;;;;;22.02;52.62;99145.48;223590;181;137004;-66
2023/06/06 13:14:38;;;;;;;9.70;5.40;;;;;;;22.04;52.99;99142.44;223570;181;145443;-68
2023/06/06 13:19:43;;;;;;;;;;;;;;;22.03;52.84;99142.92;223743;183;138838;-66
2023/06/06 13:24:46;;;;;;;7.10;4.80;;;;;;;21.92;52.76;99139.17;223804;184;128953;-67
2023/06/06 13:29:50;;;;;;;9.20;5.20;;;;;;;21.86;52.96;99133.56;223600;182;145287;-67
2023/06/06 13:34:53;;;;;;;10.00;4.70;;;;;;;21.81;53.02;99130.81;223622;181;138394;-67
2023/06/06 13:39:56;;;;;;;10.70;5.10;;;;;;;21.76;53.40;99127.88;223655;181;136536;-67
2023/06/06 13:44:59;;;;;;;8.70;4.90;;;;;;;21.72;53.51;99127.89;223777;181;145715;-68
2023/06/06 13:50:03;;;;;;;8.10;4.70;;;;;;;21.71;53.68;99122.45;223717;181;138441;-66
2023/06/06 13:55:08;;;;;;;8.60;4.30;;;;;;;21.72;54.00;99116.42;223698;203;138954;-67
2023/06/06 14:00:12;;;;;;;8.60;4.60;;;;;;;21.79;53.19;99113.73;223671;192;145299;-67
2023/06/06 14:05:17;;;;;;;9.00;4.70;;;;;;;21.80;52.79;99100.93;223705;183;139006;-70
2023/06/06 14:10:22;;;;;;;11.00;4.50;;;;;;;21.86;53.28;99101.39;223644;181;137014;-67
2023/06/06 14:15:26;;;;;;;15.40;4.90;;;;;;;21.95;53.38;99090.60;223557;181;145682;-68
2023/06/06 14:20:36;;;;;;;11.20;4.70;;;;;;;22.01;53.06;99091.25;223621;181;138454;-67
2023/06/06 14:25:44;;;;;;;10.00;4.70;;;;;;;22.11;52.57;99093.73;223844;183;137027;-68
2023/06/06 14:30:48;;;;;;;12.80;4.80;;;;;;;22.18;52.20;99096.22;223642;181;145159;-67
2023/06/06 14:35:51;;;;;;;9.60;4.60;;;;;;;22.24;52.73;99094.93;223670;181;138223;-66
2023/06/06 14:40:59;;;;;;;9.20;4.30;;;;;;;22.29;52.91;99091.83;223683;181;137001;-67
2023/06/06 14:46:02;;;;;;;11.10;4.90;;;;;;;22.30;52.15;99087.70;223699;214;145633;-71
2023/06/06 14:51:06;;;;;;;10.50;5.00;;;;;;;22.30;52.11;99085.92;223420;181;139418;-69
2023/06/06 14:56:10;;;;;;;7.80;5.10;;;;;;;22.31;52.47;99081.52;223299;181;136940;-67
2023/06/06 15:01:13;;;;;;;11.10;5.10;;;;;;;22.27;52.41;99084.51;223778;182;146255;-69
2023/06/06 15:06:16;;;;;;;10.30;4.70;;;;;;;22.22;52.81;99085.67;221963;181;138439;-70
2023/06/06 15:11:19;;;;;;;9.90;4.90;;;;;;;22.20;53.16;99083.01;223680;181;137811;-65
2023/06/06 15:16:22;;;;;;;11.70;4.80;;;;;;;22.17;53.37;99077.00;223860;180;145576;-65
2023/06/06 15:21:26;;;;;;;11.10;5.00;;;;;;;22.19;53.27;99071.78;223755;181;139666;-66
2023/06/06 15:26:29;;;;;;;11.80;4.70;;;;;;;22.25;52.94;99070.09;223745;181;137423;-68
2023/06/06 15:31:32;;;;;;;14.50;4.80;;;;;;;22.29;52.96;99065.42;223683;214;145410;-68
2023/06/06 15:36:35;;;;;;;17.10;5.20;;;;;;;22.31;52.78;99061.38;223670;185;138411;-70
2023/06/06 15:41:39;;;;;;;19.90;8.60;;;;;;;22.33;52.69;99057.80;223627;181;137969;-68
2023/06/06 15:46:42;;;;;;;114.60;95.90;;;;;;;22.35;52.17;99060.40;223593;182;146432;-67
2023/06/06 15:51:58;;;;;;;23.70;14.70;;;;;;;22.32;51.77;99056.07;223687;181;140407;-70
2023/06/06 15:57:01;;;;;;;13.60;5.90;;;;;;;22.26;51.50;99049.02;223265;181;136870;-71
2023/06/06 16:02:06;;;;;;;7.60;5.00;;;;;;;22.18;51.57;99053.22;223641;181;146051;-70
2023/06/06 16:07:10;;;;;;;8.70;4.80;;;;;;;22.12;51.53;99056.10;223680;184;138934;-71
2023/06/06 16:12:13;;;;;;;22.00;12.40;;;;;;;22.04;51.85;99054.77;223553;181;137386;-67
2023/06/06 16:17:17;;;;;;;11.70;5.00;;;;;;;21.99;52.19;99052.43;223552;181;147015;-69
2023/06/06 16:22:20;;;;;;;11.70;4.80;;;;;;;21.96;52.35;99052.19;223441;181;139329;-68
2023/06/06 16:27:25;;;;;;;9.30;5.20;;;;;;;21.95;52.87;99055.91;223533;180;136801;-67
2023/06/06 16:32:28;;;;;;;14.10;4.80;;;;;;;21.96;52.71;99062.25;223699;181;145402;-68
2023/06/06 16:37:32;;;;;;;20.90;13.30;;;;;;;21.93;52.73;99060.08;223594;187;138630;-68
2023/06/06 16:42:35;;;;;;;9.60;5.10;;;;;;;21.90;52.93;99059.33;223571;181;137574;-68
2023/06/06 16:47:48;;;;;;;10.40;5.10;;;;;;;21.89;53.21;99058.20;223541;181;145305;-68
2023/06/06 16:52:52;;;;;;;9.80;4.60;;;;;;;21.85;53.15;99056.06;223526;181;138345;-69
2023/06/06 16:58:00;;;;;;;29.60;15.80;;;;;;;21.81;53.44;99056.42;223621;182;137301;-68
2023/06/06 17:03:16;;;;;;;12.40;5.30;;;;;;;21.77;54.03;99057.16;223596;181;145225;-68
2023/06/06 17:08:20;;;;;;;12.70;6.00;;;;;;;21.76;54.42;99054.05;223666;181;138131;-68
2023/06/06 17:13:23;;;;;;;16.60;10.00;;;;;;;21.77;54.24;99051.58;223647;183;138409;-70
2023/06/06 17:18:28;;;;;;;11.40;6.80;;;;;;;21.77;54.33;99051.00;223734;181;146008;-69
2023/06/06 17:23:31;;;;;;;12.50;8.30;;;;;;;21.78;54.63;99046.30;223519;181;138414;-69
2023/06/06 17:28:35;;;;;;;13.50;6.90;;;;;;;21.76;54.88;99044.84;223593;181;137680;-68
2023/06/06 17:33:41;;;;;;;12.30;6.50;;;;;;;21.76;54.97;99043.08;223515;181;147372;-67
2023/06/06 17:38:46;;;;;;;60.10;49.10;;;;;;;21.72;55.32;99042.33;223696;181;141670;-68
2023/06/06 17:43:49;;;;;;;28.30;18.50;;;;;;;21.69;55.52;99045.73;223764;192;137103;-66
2023/06/06 17:49:00;;;;;;;10.20;6.70;;;;;;;21.64;55.93;99042.14;223660;181;147351;-66
2023/06/06 17:54:04;;;;;;;14.10;6.40;;;;;;;21.60;55.97;99041.56;223728;181;138347;-70
2023/06/06 17:59:08;;;;;;;13.00;6.20;;;;;;;21.55;56.06;99048.21;223711;181;137531;-71
2023/06/06 18:04:13;;;;;;;13.40;6.60;;;;;;;21.54;56.00;99043.64;223525;181;146853;-66
2023/06/06 18:09:16;;;;;;;9.90;6.80;;;;;;;21.53;56.02;99043.36;223519;181;140091;-66
2023/06/06 18:14:21;;;;;;;8.80;5.90;;;;;;;21.54;55.95;99045.64;223646;181;138015;-69
2023/06/06 18:19:25;;;;;;;14.60;6.60;;;;;;;21.49;56.04;99051.51;223839;214;147254;-67
2023/06/06 18:24:28;;;;;;;10.80;6.50;;;;;;;21.45;56.51;99053.90;223512;203;140686;-67
2023/06/06 18:29:31;;;;;;;12.10;6.20;;;;;;;21.38;56.85;99056.46;223698;181;137653;-67
2023/06/06 18:34:36;;;;;;;8.40;6.30;;;;;;;21.32;57.35;99062.55;223497;181;147969;-67
2023/06/06 18:39:43;;;;;;;11.90;6.90;;;;;;;21.29;57.53;99064.80;223555;181;138429;-66
2023/06/06 18:44:55;;;;;;;49.30;43.90;;;;;;;21.25;58.15;99071.50;223295;181;140690;-66
2023/06/06 18:50:01;;;;;;;14.90;8.60;;;;;;;21.26;58.40;99073.81;223643;182;147915;-64
2023/06/06 18:55:06;;;;;;;;;;;;;;;21.20;58.62;99080.41;223551;181;138336;-68
2023/06/06 19:00:12;;;;;;;17.60;9.90;;;;;;;21.13;58.95;99084.20;223706;181;130875;-64
2023/06/06 19:05:16;;;;;;;20.30;11.20;;;;;;;21.08;59.32;99086.19;223645;181;147224;-69
2023/06/06 19:10:19;;;;;;;18.10;10.10;;;;;;;21.01;59.57;99084.20;223517;181;139847;-63
2023/06/06 19:15:23;;;;;;;53.90;39.30;;;;;;;20.97;59.70;99090.23;223743;181;137040;-65
2023/06/06 19:20:27;;;;;;;16.60;10.80;;;;;;;21.00;60.09;99094.03;223671;181;147012;-63
2023/06/06 19:25:31;;;;;;;15.60;7.60;;;;;;;20.98;60.15;99097.48;223612;184;138777;-64
2023/06/06 19:30:34;;;;;;;13.10;7.80;;;;;;;20.95;60.37;99099.85;223584;181;137933;-66
2023/06/06 19:35:38;;;;;;;14.10;7.90;;;;;;;20.96;60.77;99097.90;223563;181;147922;-64
2023/06/06 19:40:42;;;;;;;126.90;94.20;;;;;;;20.98;60.89;99099.84;223596;181;138445;-65
2023/06/06 19:45:45;;;;;;;31.70;21.30;;;;;;;21.07;60.84;99098.71;223657;181;138070;-65
2023/06/06 19:50:48;;;;;;;12.50;8.40;;;;;;;21.10;60.78;99093.01;223632;181;146823;-63
2023/06/06 19:55:52;;;;;;;16.70;9.00;;;;;;;20.99;61.13;99099.58;223716;214;138832;-67
2023/06/06 20:01:00;;;;;;;14.20;7.80;;;;;;;20.86;61.25;99099.27;223670;181;137081;-68
2023/06/06 20:06:05;;;;;;;13.30;7.50;;;;;;;20.77;61.63;99100.19;223585;181;146867;-66
2023/06/06 20:11:08;;;;;;;11.60;8.30;;;;;;;20.69;62.00;99103.98;223471;181;139497;-65
2023/06/06 20:16:12;;;;;;;12.30;7.90;;;;;;;20.61;62.40;99099.87;223643;181;137129;-63
2023/06/06 20:21:15;;;;;;;11.00;7.00;;;;;;;20.53;62.68;99096.77;222556;181;146825;-66
2023/06/06 20:26:18;;;;;;;11.60;7.10;;;;;;;20.46;63.12;99098.77;223595;181;138434;-67
2023/06/06 20:31:22;;;;;;;10.80;7.20;;;;;;;20.40;63.52;99090.00;223638;214;138381;-68
2023/06/06 20:36:26;;;;;;;14.10;10.50;;;;;;;20.44;63.72;99092.83;223642;181;147759;-72
2023/06/06 20:41:30;;;;;;;12.60;7.50;;;;;;;20.44;63.78;99093.83;223555;181;138458;-64
2023/06/06 20:46:33;;;;;;;14.70;7.30;;;;;;;20.42;63.99;99101.44;223026;181;137917;-70
2023/06/06 20:51:37;;;;;;;10.90;7.40;;;;;;;20.40;64.13;99100.40;223646;181;146889;-68
2023/06/06 20:56:40;;;;;;;10.90;7.20;;;;;;;20.35;64.10;99103.75;223659;181;138378;-65
2023/06/06 21:01:43;;;;;;;10.40;7.80;;;;;;;20.30;64.41;99100.52;223673;204;136919;-66
2023/06/06 21:06:46;;;;;;;15.10;7.00;;;;;;;20.24;64.48;99098.65;223556;182;147771;-73
2023/06/06 21:11:52;;;;;;;9.10;7.00;;;;;;;20.20;64.74;99101.52;223616;185;138413;-70
2023/06/06 21:16:56;;;;;;;8.40;6.10;;;;;;;20.14;64.92;99100.16;223616;181;136651;-70
2023/06/06 21:21:59;;;;;;;7.90;5.70;;;;;;;20.12;64.96;99097.86;223634;181;147724;-63
2023/06/06 21:27:03;;;;;;;8.80;5.90;;;;;;;20.14;64.99;99096.42;223680;181;139213;-70
2023/06/06 21:32:07;;;;;;;8.40;5.80;;;;;;;20.17;64.77;99098.05;223720;192;137361;-74
2023/06/06 21:37:10;;;;;;;8.20;5.60;;;;;;;20.21;64.54;99100.20;223653;181;147551;-63
2023/06/06 21:42:13;;;;;;;8.20;5.60;;;;;;;20.15;64.35;99098.97;223683;181;139075;-64
2023/06/06 21:47:16;;;;;;;7.10;5.30;;;;;;;20.09;64.35;99095.73;223646;191;136825;-62
2023/06/06 21:52:20;;;;;;;8.70;5.10;;;;;;;20.06;64.35;99098.08;223588;181;147571;-65
2023/06/06 21:57:23;;;;;;;5.50;4.60;;;;;;;20.01;64.17;99098.77;223678;181;139321;-61
2023/06/06 22:02:26;;;;;;;5.30;4.30;;;;;;;19.94;64.18;99100.02;223723;181;137499;-64
2023/06/06 22:07:29;;;;;;;6.30;4.50;;;;;;;19.85;64.38;99098.17;223730;192;147127;-63
2023/06/06 22:18:10;;;;;;;6.70;4.40;;;;;;;19.86;64.23;99094.61;220502;192;666883;-63
2023/06/06 22:23:15;;;;;;;5.90;4.80;;;;;;;19.84;64.37;99098.95;223073;187;136516;-63
2023/06/06 22:28:18;;;;;;;5.30;4.50;;;;;;;19.82;64.51;99097.96;222874;187;144281;-64
2023/06/06 22:33:21;;;;;;;6.00;5.10;;;;;;;19.77;64.66;99091.61;223505;181;138493;-63
2023/06/06 22:38:27;;;;;;;7.50;4.90;;;;;;;19.70;65.04;99088.52;223237;191;137098;-69
2023/06/06 22:43:30;;;;;;;7.50;5.30;;;;;;;19.66;65.29;99080.88;223581;215;144915;-63
2023/06/06 22:48:34;;;;;;;5.50;4.50;;;;;;;19.60;65.61;99081.30;223512;181;138883;-67
2023/06/06 22:53:37;;;;;;;5.20;4.00;;;;;;;19.58;65.76;99076.71;223555;181;136368;-63
2023/06/06 22:58:40;;;;;;;5.80;4.70;;;;;;;19.59;65.87;99074.27;223487;181;143171;-68
2023/06/06 23:03:43;;;;;;;6.10;5.00;;;;;;;19.65;65.90;99069.77;223530;181;138414;-66
2023/06/06 23:08:47;;;;;;;6.00;5.10;;;;;;;19.65;65.98;99063.16;222444;182;136673;-70
2023/06/06 23:13:50;;;;;;;6.80;5.40;;;;;;;19.63;66.09;99061.98;220917;183;145749;-79
2023/06/06 23:18:54;;;;;;;12.10;6.10;;;;;;;19.59;66.25;99055.17;220912;181;139475;-69
2023/06/06 23:23:59;;;;;;;6.40;5.40;;;;;;;19.54;66.50;99049.07;223522;181;136295;-62
2023/06/06 23:29:06;;;;;;;7.70;5.40;;;;;;;19.48;66.87;99041.55;223498;182;144996;-66
2023/06/06 23:34:09;;;;;;;6.90;5.20;;;;;;;19.39;66.89;99043.11;223492;182;138682;-62
2023/06/06 23:39:12;;;;;;;8.40;5.10;;;;;;;19.38;67.15;99046.86;223420;182;137740;-64
2023/06/06 23:44:16;;;;;;;7.10;5.80;;;;;;;19.44;67.35;99049.45;223565;216;146753;-64
2023/06/06 23:49:19;;;;;;;7.40;6.20;;;;;;;19.53;67.28;99046.27;223539;182;138741;-65
2023/06/06 23:54:22;;;;;;;7.60;5.90;;;;;;;19.53;67.25;99041.88;223482;215;140466;-68
2023/06/06 23:59:25;;;;;;;11.00;5.90;;;;;;;19.53;67.29;99042.42;223544;182;145750;-65
